Time;durP1;ratioP1;P1;durP2;ratioP2;P2;SDS_P1;SDS_P2;PMS_P1;PMS_P2;Temp;Humidity;BMP_temperature;BMP_pressure;BME280_temperature;BME280_humidity;BME280_pressure;Samples;Min_cycle;Max_cycle;Signal;HPM_P1;HPM_P2
2021/05/13 00:00:47;;;;;;;0.77;0.50;;;;;;;18.54;41.70;95511.97;5050246;28;20048;-62
2021/05/13 00:03:12;;;;;;;1.25;0.55;;;;;;;18.53;41.84;95511.16;5047937;28;20071;-64
2021/05/13 00:05:38;;;;;;;0.47;0.47;;;;;;;18.53;41.84;95507.63;5029778;28;20056;-64
2021/05/13 00:08:04;;;;;;;0.50;0.50;;;;;;;18.52;41.87;95511.44;5044709;28;20051;-63
2021/05/13 00:10:29;;;;;;;0.43;0.43;;;;;;;18.51;41.65;95510.63;5049911;28;20055;-64
2021/05/13 00:12:58;;;;;;;0.80;0.63;;;;;;;18.50;41.88;95521.78;5049981;28;20044;-64
2021/05/13 00:15:25;;;;;;;0.60;0.60;;;;;;;18.49;41.73;95517.44;5050182;28;20057;-64
2021/05/13 00:17:50;;;;;;;0.70;0.60;;;;;;;18.47;41.80;95511.50;5053345;28;20053;-66
2021/05/13 00:20:21;;;;;;;0.70;0.60;;;;;;;18.48;41.94;95521.25;5050403;28;20119;-65
2021/05/13 00:22:47;;;;;;;0.40;0.40;;;;;;;18.46;41.67;95515.31;5050329;28;20139;-64
2021/05/13 00:25:13;;;;;;;0.57;0.50;;;;;;;18.44;41.74;95516.41;5032745;28;20068;-62
2021/05/13 00:27:38;;;;;;;0.40;0.40;;;;;;;18.43;41.88;95519.41;5065136;28;20087;-61
2021/05/13 00:30:05;;;;;;;0.75;0.60;;;;;;;18.43;42.00;95522.13;5049948;28;20100;-64
2021/05/13 00:32:30;;;;;;;1.25;1.00;;;;;;;18.42;41.72;95525.94;5049973;28;20431;-60
2021/05/13 00:34:56;;;;;;;0.90;0.50;;;;;;;18.42;41.76;95523.22;5050246;28;20057;-60
2021/05/13 00:37:21;;;;;;;0.80;0.43;;;;;;;18.41;41.70;95527.03;5050040;28;20048;-59
2021/05/13 00:39:47;;;;;;;0.70;0.60;;;;;;;18.41;41.66;95529.75;5031431;28;20082;-63
2021/05/13 00:42:13;;;;;;;1.50;0.70;;;;;;;18.39;41.68;95529.22;5050284;28;20563;-61
2021/05/13 00:44:42;;;;;;;0.77;0.47;;;;;;;18.38;41.67;95530.31;5050099;28;20059;-60
2021/05/13 00:47:08;;;;;;;0.40;0.40;;;;;;;18.38;41.82;95538.44;5049822;28;20041;-61
2021/05/13 00:49:33;;;;;;;1.52;0.60;;;;;;;18.37;41.99;95543.06;5049715;28;20773;-60
2021/05/13 00:51:58;;;;;;;1.58;0.52;;;;;;;18.37;41.96;95532.22;5049846;28;20416;-63
2021/05/13 00:54:24;;;;;;;0.52;0.40;;;;;;;18.36;41.84;95536.03;5049548;28;20060;-59
2021/05/13 00:56:50;;;;;;;0.65;0.50;;;;;;;18.36;41.90;95544.19;5064779;28;20080;-61
2021/05/13 00:59:17;;;;;;;0.93;0.40;;;;;;;18.36;41.95;95541.47;5032041;28;20498;-59
2021/05/13 01:04:11;;;;;;;0.50;0.50;;;;;;;18.35;42.21;95549.88;5039562;28;20045;-59
2021/05/13 01:06:37;;;;;;;0.60;0.60;;;;;;;18.36;42.00;95546.06;5032299;28;20500;-59
2021/05/13 01:09:07;;;;;;;0.50;0.50;;;;;;;18.34;41.92;95542.84;5049359;28;20110;-59
2021/05/13 01:11:35;;;;;;;1.10;0.50;;;;;;;18.34;42.10;95540.94;5048628;28;20053;-60
2021/05/13 01:14:13;;;;;;;0.55;0.50;;;;;;;18.33;42.15;95547.44;5049133;28;20091;-59
2021/05/13 01:16:48;;;;;;;0.93;0.68;;;;;;;18.34;42.06;95548.25;5049652;28;20064;-58
2021/05/13 01:19:16;;;;;;;0.50;0.50;;;;;;;18.33;42.27;95549.38;5051783;28;20102;-61
2021/05/13 01:21:42;;;;;;;0.50;0.40;;;;;;;18.34;42.14;95553.69;5049004;28;20051;-62
2021/05/13 01:24:07;;;;;;;1.10;0.63;;;;;;;18.34;41.97;95561.81;5049497;28;20044;-62
2021/05/13 01:26:33;;;;;;;2.58;0.52;;;;;;;18.32;42.24;95553.16;5048442;28;20061;-60
2021/05/13 01:28:59;;;;;;;0.93;0.60;;;;;;;18.32;41.99;95561.28;5030527;28;20060;-60
2021/05/13 01:31:24;;;;;;;1.02;0.50;;;;;;;18.32;41.77;95564.00;5031135;28;20057;-60
2021/05/13 01:33:49;;;;;;;0.45;0.45;;;;;;;18.32;41.98;95569.41;5048318;28;20099;-60
2021/05/13 01:36:15;;;;;;;0.47;0.45;;;;;;;18.30;42.14;95566.19;5064411;28;20063;-60
2021/05/13 01:38:41;;;;;;;1.20;0.70;;;;;;;18.30;42.37;95577.03;5049321;28;20040;-63
2021/05/13 01:41:07;;;;;;;1.38;0.63;;;;;;;18.29;42.08;95573.53;5048992;28;20048;-60
2021/05/13 01:43:32;;;;;;;0.63;0.50;;;;;;;18.29;42.21;95578.94;5048570;28;20087;-64
2021/05/13 01:45:59;;;;;;;0.45;0.40;;;;;;;18.30;42.17;95579.75;5047971;28;20053;-60
2021/05/13 01:48:25;;;;;;;2.45;0.70;;;;;;;18.29;42.00;95580.84;5048773;28;20072;-61
2021/05/13 01:50:50;;;;;;;0.57;0.50;;;;;;;18.27;42.16;95589.28;5030733;28;20051;-61
2021/05/13 01:53:16;;;;;;;1.15;0.80;;;;;;;18.29;42.34;95600.63;5044094;28;20063;-60
2021/05/13 01:55:41;;;;;;;0.63;0.60;;;;;;;18.27;42.56;95616.38;5064161;28;20539;-60
2021/05/13 01:58:06;;;;;;;0.80;0.60;;;;;;;18.29;42.57;95613.38;5048949;28;20580;-61
2021/05/13 02:00:33;;;;;;;1.17;0.50;;;;;;;18.28;42.22;95617.19;5047892;28;20061;-60
2021/05/13 02:02:59;;;;;;;0.45;0.45;;;;;;;18.27;42.68;95621.00;5048202;28;20045;-58
2021/05/13 02:05:24;;;;;;;1.17;0.70;;;;;;;18.26;42.52;95622.06;5027901;28;20407;-64
2021/05/13 02:07:50;;;;;;;0.55;0.55;;;;;;;18.26;42.81;95628.31;5038935;28;20090;-61
2021/05/13 02:10:15;;;;;;;1.00;1.00;;;;;;;18.26;42.60;95622.91;5013463;28;20048;-59
2021/05/13 02:12:41;;;;;;;1.13;0.55;;;;;;;18.25;42.45;95623.19;5048026;28;20049;-64
2021/05/13 02:15:09;;;;;;;0.88;0.60;;;;;;;18.26;42.69;95622.06;5030388;28;20132;-61
2021/05/13 02:17:34;;;;;;;1.15;0.57;;;;;;;18.26;42.61;95624.78;5046910;28;20487;-61
2021/05/13 02:19:59;;;;;;;0.60;0.60;;;;;;;18.27;42.22;95626.41;5032206;28;20052;-59
2021/05/13 02:22:25;;;;;;;0.60;0.52;;;;;;;18.26;42.45;95622.06;5047899;28;20049;-62
2021/05/13 02:24:50;;;;;;;0.50;0.40;;;;;;;18.26;42.49;95625.63;5029810;28;20048;-65
2021/05/13 02:27:16;;;;;;;0.60;0.40;;;;;;;18.25;42.34;95631.31;5047257;28;20063;-62
2021/05/13 02:29:41;;;;;;;1.05;0.50;;;;;;;18.25;42.30;95632.13;5047990;28;20376;-63
2021/05/13 02:32:07;;;;;;;0.73;0.50;;;;;;;18.25;42.64;95632.13;5046516;28;20053;-60
2021/05/13 02:34:32;;;;;;;0.50;0.50;;;;;;;18.26;42.27;95624.78;5047697;28;20061;-61
2021/05/13 02:36:57;;;;;;;0.40;0.38;;;;;;;18.24;42.61;95627.81;5046834;28;20056;-60
2021/05/13 02:39:23;;;;;;;0.30;0.30;;;;;;;18.24;42.34;95630.53;5048419;28;20047;-62
2021/05/13 02:41:48;;;;;;;0.75;0.60;;;;;;;18.23;42.68;95626.19;5047915;28;20734;-61
2021/05/13 02:44:14;;;;;;;2.47;0.57;;;;;;;18.24;42.51;95633.22;5047784;28;20126;-64
2021/05/13 02:46:39;;;;;;;0.47;0.47;;;;;;;18.23;42.37;95623.47;5048346;28;20056;-62
2021/05/13 02:49:04;;;;;;;0.32;0.32;;;;;;;18.22;42.29;95633.50;5047774;28;20500;-62
2021/05/13 02:51:30;;;;;;;0.70;0.57;;;;;;;18.22;42.49;95633.50;5047239;28;20052;-62
2021/05/13 02:53:55;;;;;;;0.45;0.43;;;;;;;18.22;42.23;95638.94;5047284;28;20053;-62
2021/05/13 02:56:21;;;;;;;0.65;0.45;;;;;;;18.21;42.00;95634.59;5047180;28;20057;-64
2021/05/13 02:58:49;;;;;;;0.38;0.38;;;;;;;18.21;42.15;95633.78;5046920;28;20507;-63
2021/05/13 03:01:29;;;;;;;1.17;0.30;;;;;;;18.20;42.38;95635.69;5047223;28;20131;-64
2021/05/13 03:03:55;;;;;;;0.75;0.50;;;;;;;18.19;42.26;95633.25;5047514;28;20761;-64
2021/05/13 03:06:21;;;;;;;0.95;0.45;;;;;;;18.18;42.61;95639.78;5046634;28;20053;-65
2021/05/13 03:08:49;;;;;;;0.55;0.40;;;;;;;18.19;42.18;95644.91;5026821;28;20124;-65
2021/05/13 03:11:14;;;;;;;0.50;0.30;;;;;;;18.18;42.45;95639.78;5028016;28;20512;-62
2021/05/13 03:13:40;;;;;;;0.50;0.40;;;;;;;18.17;42.40;95641.69;4993460;28;20053;-62
2021/05/13 03:16:05;;;;;;;0.30;0.30;;;;;;;18.17;42.40;95647.09;5027399;28;20045;-66
2021/05/13 03:18:33;;;;;;;0.30;0.30;;;;;;;18.17;42.34;95649.81;5027717;28;20487;-65
2021/05/13 03:23:54;;;;;;;0.50;0.30;;;;;;;18.15;42.52;95654.69;5027465;28;20453;-65
2021/05/13 03:26:12;;;;;;;0.73;0.40;;;;;;;18.16;42.48;95663.66;5013164;28;20045;-66
2021/05/13 03:28:37;;;;;;;1.45;0.43;;;;;;;18.14;42.11;95663.13;5034230;28;20072;-61
2021/05/13 03:31:03;;;;;;;0.40;0.40;;;;;;;18.13;42.34;95659.59;5049354;28;20045;-61
2021/05/13 03:33:28;;;;;;;0.35;0.35;;;;;;;18.12;42.25;95658.00;5049457;28;20095;-61
2021/05/13 03:35:54;;;;;;;1.00;0.47;;;;;;;18.12;42.46;95657.19;5049118;28;20049;-62
2021/05/13 03:38:20;;;;;;;0.63;0.38;;;;;;;18.13;42.28;95651.47;5049641;28;20049;-60
2021/05/13 03:40:45;;;;;;;0.77;0.40;;;;;;;18.10;42.46;95657.47;5049780;28;20053;-62
2021/05/13 03:43:10;;;;;;;1.27;0.30;;;;;;;18.12;42.47;95651.78;5014748;28;20056;-58
2021/05/13 03:45:36;;;;;;;0.60;0.35;;;;;;;18.11;42.53;95660.97;5049741;28;20057;-61
2021/05/13 03:48:03;;;;;;;0.80;0.38;;;;;;;18.10;42.50;95664.81;5031201;28;20103;-63
2021/05/13 03:50:35;;;;;;;0.40;0.30;;;;;;;18.10;42.51;95668.31;5031624;28;20045;-60
2021/05/13 03:53:01;;;;;;;0.20;0.20;;;;;;;18.09;42.48;95672.13;5029127;28;20056;-64
2021/05/13 03:55:27;;;;;;;0.32;0.30;;;;;;;18.08;42.66;95681.34;5048805;28;20118;-60
2021/05/13 03:57:55;;;;;;;0.40;0.40;;;;;;;18.08;42.63;95684.03;5030983;28;20052;-61
2021/05/13 04:00:27;;;;;;;0.40;0.40;;;;;;;18.07;42.60;95684.31;5049234;28;20084;-61
2021/05/13 04:02:52;;;;;;;1.42;0.22;;;;;;;18.06;42.39;95693.56;5032245;28;20138;-61
2021/05/13 04:05:18;;;;;;;0.20;0.20;;;;;;;18.06;42.67;95694.38;5048614;28;20500;-61
2021/05/13 04:07:45;;;;;;;0.40;0.40;;;;;;;18.05;42.33;95695.47;5049024;28;20099;-61
2021/05/13 04:10:10;;;;;;;0.77;0.30;;;;;;;18.04;42.56;95699.25;5032288;28;20059;-63
2021/05/13 04:12:39;;;;;;;0.30;0.30;;;;;;;18.03;42.48;95697.66;5047957;28;20061;-60
2021/05/13 04:15:06;;;;;;;0.35;0.35;;;;;;;18.03;42.40;95703.88;5031617;28;20137;-61
2021/05/13 04:17:31;;;;;;;1.20;0.30;;;;;;;18.02;42.61;95715.78;5032538;28;20045;-62
2021/05/13 04:19:57;;;;;;;0.47;0.47;;;;;;;17.98;42.34;95701.19;5050145;28;20428;-61
2021/05/13 04:22:22;;;;;;;0.63;0.40;;;;;;;18.01;42.07;95708.78;5038005;28;20439;-61
2021/05/13 04:24:48;;;;;;;0.95;0.30;;;;;;;18.01;42.41;95705.25;5049196;28;20530;-60
2021/05/13 04:27:13;;;;;;;0.90;0.30;;;;;;;18.00;42.40;95714.47;5049165;28;20045;-59
2021/05/13 04:29:38;;;;;;;0.40;0.30;;;;;;;17.99;42.50;95718.28;5049269;28;20405;-61
2021/05/13 04:32:04;;;;;;;0.28;0.28;;;;;;;17.99;42.41;95719.09;5048951;28;20056;-61
2021/05/13 04:34:29;;;;;;;0.45;0.28;;;;;;;17.98;42.67;95725.56;5049376;28;20053;-65
2021/05/13 04:36:55;;;;;;;0.30;0.30;;;;;;;17.98;42.71;95727.47;5049204;28;20615;-60
2021/05/13 04:39:20;;;;;;;0.65;0.50;;;;;;;17.96;42.36;95716.91;5030934;28;20412;-62
2021/05/13 04:41:46;;;;;;;0.45;0.45;;;;;;;17.97;42.56;95723.19;5048538;28;20521;-62
2021/05/13 04:44:11;;;;;;;0.40;0.30;;;;;;;17.95;42.35;95723.44;5065708;28;20047;-65
2021/05/13 04:46:37;;;;;;;0.65;0.40;;;;;;;17.95;42.53;95723.44;5048775;28;20052;-59
2021/05/13 04:51:30;;;;;;;0.45;0.30;;;;;;;17.93;42.31;95722.13;5030744;28;20154;-64
2021/05/13 04:53:55;;;;;;;0.30;0.30;;;;;;;17.93;42.36;95728.34;5048514;28;20102;-62
2021/05/13 04:56:21;;;;;;;0.30;0.30;;;;;;;17.92;42.61;95731.31;5048112;28;20412;-62
2021/05/13 04:58:47;;;;;;;0.30;0.25;;;;;;;17.91;42.73;95725.09;5048542;28;20495;-64
2021/05/13 05:01:12;;;;;;;0.35;0.30;;;;;;;17.91;42.63;95729.72;5031280;28;20049;-60
2021/05/13 05:03:38;;;;;;;1.10;0.30;;;;;;;17.89;42.64;95726.47;5030940;28;20060;-65
2021/05/13 05:06:03;;;;;;;1.35;0.22;;;;;;;17.89;42.22;95730.00;5048404;28;20064;-65
2021/05/13 05:08:29;;;;;;;0.63;0.30;;;;;;;17.88;42.68;95733.78;5048876;28;20048;-63
2021/05/13 05:10:54;;;;;;;1.60;0.30;;;;;;;17.88;42.38;95722.13;5047890;28;20519;-65
2021/05/13 05:13:19;;;;;;;0.20;0.20;;;;;;;17.87;42.62;95723.25;5048765;28;20531;-65
2021/05/13 05:15:45;;;;;;;0.22;0.20;;;;;;;17.86;42.58;95725.13;5048302;28;20049;-61
2021/05/13 05:18:21;;;;;;;0.20;0.20;;;;;;;17.85;42.64;95723.53;5048663;28;20080;-66
2021/05/13 05:20:46;;;;;;;0.30;0.30;;;;;;;17.84;42.48;95721.91;5047868;28;20124;-62
2021/05/13 05:23:12;;;;;;;0.20;0.20;;;;;;;17.86;42.68;95721.63;5013901;28;20135;-66
2021/05/13 05:25:40;;;;;;;0.10;0.10;;;;;;;17.82;42.63;95722.19;5048144;28;20052;-64
2021/05/13 05:28:06;;;;;;;0.40;0.40;;;;;;;17.83;42.60;95714.88;5048037;28;20049;-65
2021/05/13 05:30:33;;;;;;;0.10;0.10;;;;;;;17.81;42.74;95715.09;5046376;28;20047;-65
2021/05/13 05:33:03;;;;;;;0.35;0.30;;;;;;;17.81;42.31;95720.53;5048226;28;20496;-65
2021/05/13 05:35:28;;;;;;;1.38;0.40;;;;;;;17.81;42.56;95719.72;5047733;28;20048;-64
2021/05/13 05:37:54;;;;;;;0.75;0.20;;;;;;;17.78;42.62;95718.41;5047504;28;20037;-59
2021/05/13 05:40:20;;;;;;;0.35;0.20;;;;;;;17.79;42.20;95720.00;5030049;28;20055;-62
2021/05/13 05:42:45;;;;;;;0.20;0.20;;;;;;;17.78;42.32;95721.09;5030756;28;20040;-59
2021/05/13 05:45:11;;;;;;;0.75;0.30;;;;;;;17.76;42.28;95717.88;5014161;28;20056;-62
2021/05/13 05:47:37;;;;;;;1.00;0.32;;;;;;;17.77;42.43;95719.47;5030795;28;20110;-62
2021/05/13 05:50:03;;;;;;;0.30;0.20;;;;;;;17.77;42.43;95716.75;5048180;28;20045;-64
2021/05/13 05:52:28;;;;;;;0.28;0.28;;;;;;;17.77;42.43;95715.97;5046489;28;20073;-61
2021/05/13 05:54:55;;;;;;;0.73;0.20;;;;;;;17.77;42.49;95715.97;5046839;28;20443;-62
2021/05/13 05:57:21;;;;;;;0.32;0.30;;;;;;;17.75;42.41;95721.66;5048031;28;20056;-61
2021/05/13 05:59:46;;;;;;;0.82;0.20;;;;;;;17.75;42.70;95718.13;5042599;28;20065;-63
2021/05/13 06:02:12;;;;;;;0.30;0.30;;;;;;;17.75;43.04;95718.94;5047403;28;20272;-65
2021/05/13 06:04:37;;;;;;;0.77;0.40;;;;;;;17.76;42.94;95717.88;5047669;28;20102;-63
2021/05/13 06:07:02;;;;;;;1.05;0.40;;;;;;;17.75;43.10;95724.34;5030269;28;20056;-63
2021/05/13 06:09:28;;;;;;;1.00;0.30;;;;;;;17.74;42.91;95711.91;5046767;28;20552;-62
2021/05/13 06:11:53;;;;;;;0.30;0.30;;;;;;;17.76;43.07;95717.88;5048282;28;20515;-62
2021/05/13 06:14:19;;;;;;;0.98;0.45;;;;;;;17.76;43.23;95717.06;5045921;28;20061;-62
2021/05/13 06:16:44;;;;;;;0.77;0.40;;;;;;;17.76;43.17;95712.44;5047316;28;20056;-61
2021/05/13 06:19:09;;;;;;;0.40;0.40;;;;;;;17.77;43.23;95716.75;5042918;28;20048;-62
2021/05/13 06:21:38;;;;;;;0.98;0.30;;;;;;;17.77;43.35;95722.19;5047648;28;20060;-64
2021/05/13 06:24:08;;;;;;;1.92;0.90;;;;;;;17.78;43.02;95718.41;5048293;28;20045;-63
2021/05/13 06:26:33;;;;;;;0.28;0.28;;;;;;;17.79;43.40;95721.91;5048040;28;20107;-63
2021/05/13 06:28:59;;;;;;;0.82;0.50;;;;;;;17.80;43.25;95718.13;5062897;28;20048;-65
2021/05/13 06:31:24;;;;;;;0.32;0.32;;;;;;;17.80;43.44;95718.13;5046910;28;20063;-65
2021/05/13 06:33:50;;;;;;;0.63;0.30;;;;;;;17.79;43.13;95721.91;5046005;28;20052;-61
2021/05/13 06:36:15;;;;;;;1.00;0.40;;;;;;;17.79;43.34;95720.00;5043862;28;20048;-60
2021/05/13 06:38:42;;;;;;;2.00;0.30;;;;;;;17.79;43.41;95720.00;5023656;28;20084;-58
2021/05/13 06:41:09;;;;;;;0.52;0.30;;;;;;;17.80;43.33;95724.34;5027472;28;20748;-60
2021/05/13 06:43:35;;;;;;;0.73;0.15;;;;;;;17.79;43.25;95733.53;5028815;28;20049;-60
2021/05/13 06:46:00;;;;;;;0.30;0.30;;;;;;;17.79;43.17;95733.53;5028547;28;20061;-60
2021/05/13 06:48:26;;;;;;;0.50;0.30;;;;;;;17.79;43.00;95728.13;5034962;28;20400;-62
2021/05/13 06:50:51;;;;;;;0.32;0.32;;;;;;;17.79;43.44;95727.31;5040028;28;20056;-60
2021/05/13 06:53:20;;;;;;;0.40;0.40;;;;;;;17.80;43.56;95734.38;5047240;28;20049;-60
2021/05/13 06:55:51;;;;;;;0.30;0.30;;;;;;;17.78;43.23;95734.66;5045546;28;20403;-62
2021/05/13 06:58:16;;;;;;;1.85;0.50;;;;;;;17.79;43.42;95740.88;5033641;28;20141;-59
2021/05/13 07:00:42;;;;;;;0.20;0.20;;;;;;;17.77;43.22;95735.72;4977393;28;20644;-61
2021/05/13 07:03:07;;;;;;;0.95;0.65;;;;;;;17.74;43.59;95730.88;5006567;28;20791;-59
2021/05/13 07:05:32;;;;;;;0.40;0.40;;;;;;;17.76;43.49;95736.81;5048329;28;20057;-64
2021/05/13 07:07:58;;;;;;;0.30;0.20;;;;;;;17.78;43.23;95742.78;4961827;28;20068;-58
2021/05/13 07:10:23;;;;;;;0.20;0.20;;;;;;;17.77;43.43;95743.03;5049900;28;20450;-59
2021/05/13 07:12:49;;;;;;;0.20;0.20;;;;;;;17.78;43.47;95742.78;5032836;28;20053;-58
2021/05/13 07:15:14;;;;;;;0.98;0.20;;;;;;;17.77;43.49;95743.84;5051017;28;20053;-60
2021/05/13 07:17:40;;;;;;;0.88;0.28;;;;;;;17.77;43.53;95743.84;5032763;28;20051;-58
2021/05/13 07:20:06;;;;;;;0.57;0.40;;;;;;;17.78;43.67;95742.78;5049752;28;20084;-58
2021/05/13 07:22:31;;;;;;;1.08;0.28;;;;;;;17.78;43.40;95745.47;5050308;28;20063;-59
2021/05/13 07:24:57;;;;;;;0.57;0.30;;;;;;;17.77;43.47;95738.44;5044579;28;20045;-59
2021/05/13 07:27:22;;;;;;;0.47;0.28;;;;;;;17.79;43.48;95740.88;5045280;28;20041;-59
2021/05/13 07:29:48;;;;;;;0.88;0.20;;;;;;;17.78;43.39;95740.06;5046211;28;20520;-59
2021/05/13 07:32:13;;;;;;;0.43;0.32;;;;;;;17.78;43.59;95737.34;5049134;28;20049;-61
2021/05/13 07:34:39;;;;;;;0.40;0.40;;;;;;;17.79;43.36;95749.78;5049754;28;20052;-60
2021/05/13 07:37:04;;;;;;;1.20;0.50;;;;;;;17.80;43.25;95747.91;5050116;28;20063;-59
2021/05/13 07:39:30;;;;;;;0.43;0.20;;;;;;;17.80;43.22;95747.91;5030240;28;20053;-60
2021/05/13 07:41:55;;;;;;;0.20;0.20;;;;;;;17.80;43.38;95745.22;5048780;28;20095;-61
2021/05/13 07:44:21;;;;;;;0.30;0.30;;;;;;;17.80;43.06;95751.44;5049810;28;20522;-61
2021/05/13 07:46:47;;;;;;;0.93;0.30;;;;;;;17.80;43.33;95746.00;5033066;28;20045;-60
2021/05/13 07:49:12;;;;;;;0.50;0.50;;;;;;;17.81;43.41;95747.63;5032746;28;20480;-60
2021/05/13 07:51:38;;;;;;;0.30;0.30;;;;;;;17.81;43.32;95744.91;5026955;28;20045;-61
2021/05/13 07:54:03;;;;;;;0.20;0.20;;;;;;;17.81;43.26;95744.91;5042318;28;20052;-58
2021/05/13 07:56:29;;;;;;;0.57;0.45;;;;;;;17.81;43.23;95746.81;5049495;28;20049;-59
2021/05/13 07:58:54;;;;;;;0.85;0.50;;;;;;;17.81;42.94;95750.31;5049499;28;20045;-59
2021/05/13 08:01:20;;;;;;;0.80;0.20;;;;;;;17.80;43.19;95751.44;5049224;28;20048;-59
2021/05/13 08:03:45;;;;;;;0.77;0.35;;;;;;;17.81;42.94;95746.81;5046016;28;20049;-58
2021/05/13 08:06:13;;;;;;;0.65;0.30;;;;;;;17.81;43.28;95744.09;5048319;28;20419;-60
2021/05/13 08:08:38;;;;;;;1.00;0.45;;;;;;;17.81;43.29;95744.91;5046118;28;20484;-59
2021/05/13 08:11:04;;;;;;;0.85;0.40;;;;;;;17.80;43.42;95747.91;5049635;28;20052;-61
2021/05/13 08:13:31;;;;;;;0.40;0.28;;;;;;;17.80;43.44;95739.78;5045348;28;20415;-59
2021/05/13 08:15:56;;;;;;;0.35;0.20;;;;;;;17.80;43.18;95737.88;5036726;28;20057;-60
2021/05/13 08:18:21;;;;;;;0.80;0.38;;;;;;;17.82;43.41;95743.03;5046400;28;20102;-59
2021/05/13 08:20:47;;;;;;;0.60;0.32;;;;;;;17.81;43.22;95739.50;5015569;28;20037;-59
2021/05/13 08:23:12;;;;;;;0.25;0.25;;;;;;;17.82;42.86;95738.44;5049534;28;20060;-60
2021/05/13 08:25:38;;;;;;;1.58;0.32;;;;;;;17.83;43.15;95731.91;5049809;28;20520;-64
2021/05/13 08:28:03;;;;;;;0.30;0.28;;;;;;;17.83;43.04;95731.13;5049557;28;20045;-61
2021/05/13 08:30:29;;;;;;;0.88;0.30;;;;;;;17.84;43.42;95735.47;5049708;28;20047;-58
2021/05/13 08:32:54;;;;;;;0.40;0.40;;;;;;;17.83;43.39;95729.22;5049264;28;20053;-60
2021/05/13 08:35:20;;;;;;;0.22;0.22;;;;;;;17.85;43.22;95741.69;5049962;28;20057;-60
2021/05/13 08:37:45;;;;;;;1.00;0.20;;;;;;;17.86;43.31;95737.88;5049733;28;20056;-58
2021/05/13 08:40:11;;;;;;;0.43;0.30;;;;;;;17.86;43.02;95732.44;5049610;28;20491;-59
2021/05/13 08:42:36;;;;;;;0.30;0.20;;;;;;;17.85;42.41;95730.84;5048583;28;20051;-59
2021/05/13 08:45:03;;;;;;;0.17;0.17;;;;;;;17.81;42.61;95725.94;5049796;28;20045;-60
2021/05/13 08:47:28;;;;;;;0.52;0.30;;;;;;;17.81;42.66;95723.22;5049113;28;20055;-59
2021/05/13 08:49:54;;;;;;;1.15;0.30;;;;;;;17.82;42.86;95716.78;5048467;28;20053;-58
2021/05/13 08:52:21;;;;;;;0.40;0.40;;;;;;;17.82;42.99;95710.53;5048861;28;20059;-62
2021/05/13 08:54:51;;;;;;;2.78;0.35;;;;;;;17.82;43.03;95714.06;5048567;28;20063;-60
2021/05/13 08:57:17;;;;;;;0.35;0.35;;;;;;;17.85;43.16;95718.09;5031207;28;20147;-59
2021/05/13 08:59:42;;;;;;;1.33;0.30;;;;;;;17.86;43.34;95716.19;5030684;28;20131;-58
2021/05/13 09:02:08;;;;;;;3.17;0.38;;;;;;;17.88;43.26;95711.31;5048497;28;20404;-59
2021/05/13 09:04:45;;;;;;;2.10;0.35;;;;;;;17.86;43.30;95708.06;5013809;28;20063;-58
2021/05/13 09:07:13;;;;;;;1.45;0.30;;;;;;;17.88;42.85;95712.09;5046018;28;20522;-59
2021/05/13 09:09:40;;;;;;;2.17;0.47;;;;;;;17.90;42.91;95711.81;5033356;28;20052;-59
2021/05/13 09:12:06;;;;;;;2.50;0.20;;;;;;;17.91;43.27;95716.97;5029300;28;20059;-59
2021/05/13 09:14:32;;;;;;;1.42;0.50;;;;;;;17.91;43.23;95722.41;5047751;28;20045;-59
2021/05/13 09:17:00;;;;;;;2.80;0.50;;;;;;;17.92;42.99;95709.66;5030010;28;20415;-60
2021/05/13 09:19:27;;;;;;;0.75;0.25;;;;;;;17.93;43.05;95719.41;5048526;28;20047;-60
2021/05/13 09:22:08;;;;;;;1.38;0.30;;;;;;;17.94;42.97;95710.97;5048557;28;20048;-59
2021/05/13 09:24:46;;;;;;;2.45;0.43;;;;;;;17.94;43.12;95710.19;5030506;28;20060;-59
2021/05/13 09:27:21;;;;;;;1.08;0.40;;;;;;;17.94;43.18;95707.47;5048070;28;20843;-59
2021/05/13 09:29:47;;;;;;;4.75;0.43;;;;;;;17.94;43.20;95707.47;5047666;28;20059;-61
2021/05/13 09:32:15;;;;;;;0.20;0.20;;;;;;;17.94;43.22;95705.56;5048386;28;20045;-59
2021/05/13 09:34:41;;;;;;;0.63;0.30;;;;;;;17.94;42.95;95705.56;5063790;28;20048;-60
2021/05/13 09:37:06;;;;;;;0.52;0.30;;;;;;;17.95;42.82;95703.69;5029854;28;20063;-59
2021/05/13 09:39:32;;;;;;;0.75;0.45;;;;;;;17.97;42.81;95707.72;5046229;28;20117;-56
2021/05/13 09:42:04;;;;;;;0.55;0.22;;;;;;;17.97;42.90;95704.22;5036696;28;20103;-59
2021/05/13 09:44:37;;;;;;;1.23;0.32;;;;;;;17.98;43.05;95700.38;5026252;28;20990;-59
2021/05/13 09:47:21;;;;;;;1.65;0.40;;;;;;;17.98;43.10;95697.69;5043867;28;20490;-59
2021/05/13 09:50:06;;;;;;;1.35;0.28;;;;;;;18.01;43.12;95706.06;5048175;28;20060;-62
2021/05/13 09:52:48;;;;;;;0.22;0.22;;;;;;;18.04;43.08;95701.97;5063164;28;20412;-59
2021/05/13 09:55:33;;;;;;;0.35;0.30;;;;;;;18.07;42.66;95701.41;5044900;28;20052;-60
2021/05/13 09:58:09;;;;;;;2.42;0.40;;;;;;;18.09;42.88;95704.66;5029977;28;20120;-65
2021/05/13 10:00:42;;;;;;;1.90;0.35;;;;;;;18.11;42.85;95696.22;5044873;28;20131;-59
2021/05/13 10:03:14;;;;;;;0.85;0.52;;;;;;;18.13;42.76;95704.88;5045210;28;20040;-63
2021/05/13 10:05:41;;;;;;;0.30;0.20;;;;;;;18.15;42.78;95691.84;5043510;28;20503;-62
2021/05/13 10:08:06;;;;;;;1.27;0.35;;;;;;;18.17;42.68;95695.88;5027962;28;20242;-65
2021/05/13 10:10:32;;;;;;;1.13;0.45;;;;;;;18.18;42.88;95691.28;5043929;28;20567;-60
2021/05/13 10:12:58;;;;;;;0.45;0.40;;;;;;;18.17;42.59;95685.03;5045514;28;20097;-60
2021/05/13 10:15:26;;;;;;;0.60;0.22;;;;;;;18.17;42.74;95674.19;5046152;28;20048;-62
2021/05/13 10:17:55;;;;;;;2.40;0.40;;;;;;;18.18;42.99;95680.44;4998521;28;20076;-59
2021/05/13 10:20:21;;;;;;;0.65;0.60;;;;;;;18.20;42.61;95672.84;5029651;28;20044;-60
2021/05/13 10:22:47;;;;;;;1.63;0.98;;;;;;;18.23;42.39;95677.69;5046680;28;20467;-58
2021/05/13 10:25:19;;;;;;;2.67;1.25;;;;;;;18.25;42.50;95677.41;5048138;28;20076;-59
2021/05/13 10:28:01;;;;;;;1.70;0.95;;;;;;;18.28;42.94;95679.53;5047448;28;20114;-58
2021/05/13 10:30:28;;;;;;;1.75;0.90;;;;;;;18.29;42.79;95676.53;5047749;28;20052;-59
2021/05/13 10:33:09;;;;;;;1.02;0.70;;;;;;;18.30;42.67;95675.47;5047566;28;20519;-59
2021/05/13 10:35:35;;;;;;;0.98;0.70;;;;;;;18.31;42.72;95671.63;5047683;28;20530;-60
2021/05/13 10:38:02;;;;;;;0.80;0.80;;;;;;;18.33;42.75;95671.34;5029160;28;20041;-58
2021/05/13 10:43:11;;;;;;;2.67;0.80;;;;;;;18.36;42.85;95668.06;5047476;28;20075;-57
2021/05/13 10:45:38;;;;;;;2.20;0.90;;;;;;;18.35;43.36;95659.13;5038381;28;20508;-60
2021/05/13 10:48:11;;;;;;;1.08;0.88;;;;;;;18.37;43.32;95656.13;5027304;28;20053;-60
2021/05/13 10:50:44;;;;;;;1.10;0.90;;;;;;;18.36;43.39;95651.78;5045871;28;20075;-60
2021/05/13 10:53:47;;;;;;;1.38;0.70;;;;;;;18.36;43.26;95649.09;5046179;28;20049;-58
2021/05/13 10:56:15;;;;;;;0.60;0.52;;;;;;;18.35;43.42;95648.28;5044241;28;20057;-60
2021/05/13 10:58:59;;;;;;;0.85;0.60;;;;;;;18.33;43.57;95645.06;5047716;28;20056;-59
2021/05/13 11:01:48;;;;;;;3.37;0.70;;;;;;;18.33;43.40;95650.47;5036831;28;20113;-60
2021/05/13 11:04:19;;;;;;;1.60;0.70;;;;;;;18.33;43.51;95642.34;5031737;28;20056;-59
2021/05/13 11:06:45;;;;;;;1.92;0.80;;;;;;;18.34;43.49;95643.97;5039128;28;20056;-59
2021/05/13 11:09:10;;;;;;;1.63;0.50;;;;;;;18.35;43.38;95642.06;5029388;28;20068;-59
2021/05/13 11:12:17;;;;;;;1.42;0.73;;;;;;;18.34;43.33;95630.41;5011640;28;20051;-59
2021/05/13 11:17:53;;;;;;;0.57;0.50;;;;;;;18.32;43.20;95629.06;5039895;28;20131;-59
2021/05/13 11:20:41;;;;;;;0.70;0.70;;;;;;;18.37;43.33;95623.59;5051437;28;20037;-61
2021/05/13 11:23:09;;;;;;;2.08;0.73;;;;;;;18.38;43.52;95620.59;5040952;28;20060;-60
2021/05/13 11:25:40;;;;;;;0.52;0.50;;;;;;;18.40;43.39;95621.09;5038147;28;20057;-58
2021/05/13 11:28:43;;;;;;;1.13;0.80;;;;;;;18.41;43.30;95620.03;5045974;28;20073;-60
2021/05/13 11:31:10;;;;;;;0.38;0.38;;;;;;;18.44;43.57;95615.91;5027708;28;20095;-59
2021/05/13 11:34:04;;;;;;;0.60;0.40;;;;;;;18.44;43.39;95608.59;5046409;28;20049;-58
2021/05/13 11:36:36;;;;;;;0.93;0.93;;;;;;;18.47;43.26;95603.69;5045362;28;20041;-59
2021/05/13 11:39:09;;;;;;;0.93;0.50;;;;;;;18.49;43.31;95598.78;5060789;28;20057;-60
2021/05/13 11:41:35;;;;;;;1.05;0.52;;;;;;;18.50;43.25;95598.50;5026451;28;20068;-58
2021/05/13 11:44:00;;;;;;;0.90;0.30;;;;;;;18.50;43.30;95590.38;5011390;28;20444;-60
2021/05/13 11:46:29;;;;;;;0.68;0.50;;;;;;;18.53;43.36;95595.22;5018510;28;20057;-59
2021/05/13 11:48:54;;;;;;;0.88;0.70;;;;;;;18.53;43.28;95592.50;5023883;28;20128;-59